Time;durP1;ratioP1;P1;durP2;ratioP2;P2;SDS_P1;SDS_P2;PMS_P1;PMS_P2;Temp;Humidity;BMP_temperature;BMP_pressure;BME280_temperature;BME280_humidity;BME280_pressure;Samples;Min_cycle;Max_cycle;Signal;HPM_P1;HPM_P2
2023/09/07 00:01:55;;;;;;;6.40;3.78;;;19.90;99.90;;;;;;5001266;28;20561;-61
2023/09/07 00:04:22;;;;;;;5.95;3.72;;;19.80;99.90;;;;;;5030795;28;20073;-61
2023/09/07 00:06:49;;;;;;;6.72;3.83;;;19.80;99.90;;;;;;5031563;28;20049;-61
2023/09/07 00:09:18;;;;;;;9.07;4.05;;;19.80;99.90;;;;;;5031325;28;20479;-61
2023/09/07 00:11:45;;;;;;;7.05;4.00;;;19.80;99.90;;;;;;5030875;28;20431;-61
2023/09/07 00:14:11;;;;;;;6.80;3.83;;;19.70;99.90;;;;;;5031003;28;20044;-61
2023/09/07 00:16:38;;;;;;;7.07;3.97;;;19.70;99.90;;;;;;5031249;28;20038;-61
2023/09/07 00:19:04;;;;;;;5.88;4.15;;;19.70;99.90;;;;;;5023521;28;20049;-61
2023/09/07 00:21:30;;;;;;;8.65;3.88;;;19.70;99.90;;;;;;5017735;28;20041;-61
2023/09/07 00:23:55;;;;;;;7.95;3.80;;;19.70;99.90;;;;;;5030092;28;20094;-62
2023/09/07 00:26:21;;;;;;;4.88;3.60;;;19.70;99.90;;;;;;5023802;28;20121;-63
2023/09/07 00:28:48;;;;;;;10.30;4.03;;;19.70;99.90;;;;;;5020711;28;20040;-63
2023/09/07 00:31:13;;;;;;;7.45;3.97;;;19.60;99.90;;;;;;5028975;28;20045;-62
2023/09/07 00:33:39;;;;;;;4.72;3.33;;;19.60;99.90;;;;;;5029791;28;20041;-61
2023/09/07 00:36:05;;;;;;;8.02;3.58;;;19.60;99.90;;;;;;5012483;28;20158;-61
2023/09/07 00:38:30;;;;;;;6.50;3.72;;;19.60;99.90;;;;;;5030224;28;20541;-61
2023/09/07 00:40:56;;;;;;;5.88;3.88;;;19.50;99.90;;;;;;5026486;28;20486;-62
2023/09/07 00:43:22;;;;;;;7.13;4.03;;;19.50;99.90;;;;;;5012468;28;20155;-61
2023/09/07 00:45:47;;;;;;;6.03;3.92;;;19.50;99.90;;;;;;5029617;28;20396;-63
2023/09/07 00:48:16;;;;;;;9.07;3.78;;;19.50;99.90;;;;;;5003723;28;20050;-61
2023/09/07 00:50:43;;;;;;;6.90;4.03;;;19.40;99.90;;;;;;5025442;28;20032;-61
2023/09/07 00:53:10;;;;;;;7.80;3.75;;;19.40;99.90;;;;;;5030411;28;20037;-62
2023/09/07 00:55:37;;;;;;;7.97;3.58;;;19.40;99.90;;;;;;5019600;28;20045;-62
2023/09/07 00:58:04;;;;;;;8.65;3.90;;;19.40;99.90;;;;;;5012284;28;20045;-62
2023/09/07 01:00:30;;;;;;;7.63;3.75;;;19.40;99.90;;;;;;5012393;28;20466;-64
2023/09/07 01:02:56;;;;;;;6.68;3.70;;;19.40;99.90;;;;;;5029721;28;20129;-62
2023/09/07 01:05:40;;;;;;;5.82;3.72;;;19.40;99.90;;;;;;5024607;28;20056;-61
2023/09/07 01:08:14;;;;;;;4.95;3.63;;;19.40;99.90;;;;;;5012407;28;20095;-61
2023/09/07 01:10:39;;;;;;;6.82;3.92;;;19.30;99.90;;;;;;5030161;28;20467;-62
2023/09/07 01:13:05;;;;;;;5.40;3.90;;;19.30;99.90;;;;;;5030135;28;20136;-62
2023/09/07 01:15:30;;;;;;;6.70;4.35;;;19.30;99.90;;;;;;5029813;28;20041;-62
2023/09/07 01:17:57;;;;;;;;;;;19.20;99.90;;;;;;5017795;28;20120;-63
2023/09/07 01:20:24;;;;;;;8.98;4.10;;;19.30;99.90;;;;;;5029641;28;19924;-62
2023/09/07 01:22:51;;;;;;;6.35;4.43;;;19.20;99.90;;;;;;5030106;28;20484;-61
2023/09/07 01:25:16;;;;;;;5.90;4.25;;;19.20;99.90;;;;;;5019281;28;20057;-62
2023/09/07 01:27:42;;;;;;;7.65;4.80;;;19.20;99.90;;;;;;5033593;28;20037;-61
2023/09/07 01:30:09;;;;;;;8.85;4.13;;;19.20;99.90;;;;;;5033612;28;20120;-62
2023/09/07 01:32:34;;;;;;;8.13;4.63;;;19.20;99.90;;;;;;5033253;28;20029;-61
2023/09/07 01:35:03;;;;;;;6.80;4.28;;;19.20;99.90;;;;;;5033177;28;20048;-61
2023/09/07 01:37:28;;;;;;;8.75;4.57;;;19.20;99.90;;;;;;5033504;28;20050;-62
2023/09/07 01:39:54;;;;;;;8.48;4.47;;;19.20;99.90;;;;;;5033501;28;20059;-62
2023/09/07 01:42:21;;;;;;;10.15;4.60;;;19.10;99.90;;;;;;5033108;28;20045;-61
2023/09/07 01:44:47;;;;;;;8.40;4.75;;;19.10;99.90;;;;;;5023751;28;20033;-62
2023/09/07 01:47:13;;;;;;;9.30;5.15;;;19.10;99.90;;;;;;5015653;28;20099;-61
2023/09/07 01:49:38;;;;;;;7.38;4.80;;;19.10;99.90;;;;;;5033315;28;20033;-62
2023/09/07 01:52:04;;;;;;;7.90;4.57;;;19.10;99.90;;;;;;5032982;28;20037;-63
2023/09/07 01:54:30;;;;;;;7.50;4.50;;;19.10;99.90;;;;;;5031481;28;20099;-63
2023/09/07 01:56:56;;;;;;;9.80;4.43;;;19.00;99.90;;;;;;4999099;28;20125;-62
2023/09/07 01:59:21;;;;;;;8.85;5.25;;;19.00;99.90;;;;;;5032746;28;20113;-63
2023/09/07 02:01:47;;;;;;;9.20;4.82;;;19.00;99.90;;;;;;5033413;28;20528;-62
2023/09/07 02:04:13;;;;;;;6.65;4.35;;;19.00;99.90;;;;;;5032536;28;20098;-62
2023/09/07 02:06:39;;;;;;;8.43;5.10;;;19.00;99.90;;;;;;5007016;28;20041;-62
2023/09/07 02:09:04;;;;;;;8.10;4.78;;;19.00;99.90;;;;;;5033131;28;20037;-62
2023/09/07 02:11:30;;;;;;;5.65;4.47;;;19.00;99.90;;;;;;5015097;28;20060;-63
2023/09/07 02:13:56;;;;;;;7.03;4.57;;;18.90;99.90;;;;;;5032899;28;20537;-63
2023/09/07 02:16:21;;;;;;;6.13;4.15;;;18.90;99.90;;;;;;5019238;28;20529;-61
2023/09/07 02:18:50;;;;;;;5.28;4.28;;;18.90;99.90;;;;;;5023627;28;20041;-62
2023/09/07 02:21:15;;;;;;;;;;;18.90;99.90;;;;;;5023936;28;20072;-61
2023/09/07 02:23:41;;;;;;;8.23;4.55;;;18.80;99.90;;;;;;5032696;28;19921;-62
2023/09/07 02:26:06;;;;;;;11.90;4.85;;;18.80;99.90;;;;;;5018648;28;20107;-63
2023/09/07 02:28:32;;;;;;;7.07;4.97;;;18.80;99.90;;;;;;5027510;28;20075;-64
2023/09/07 02:33:38;;;;;;;7.10;4.22;;;18.70;99.90;;;;;;4989997;28;20065;-64
2023/09/07 02:36:04;;;;;;;9.70;4.70;;;18.70;99.90;;;;;;4993266;28;20520;-65
2023/09/07 02:38:30;;;;;;;10.80;4.20;;;18.70;99.90;;;;;;4992483;28;20039;-65
2023/09/07 02:40:56;;;;;;;;;;;18.60;99.90;;;;;;4993797;28;20042;-65
2023/09/07 02:43:22;;;;;;;7.38;5.13;;;18.60;99.90;;;;;;4975676;28;19921;-64
2023/09/07 02:45:49;;;;;;;6.97;4.85;;;18.60;99.90;;;;;;4992835;28;20026;-65
2023/09/07 02:48:15;;;;;;;8.20;5.00;;;18.60;99.90;;;;;;4992561;28;20081;-65
2023/09/07 02:50:40;;;;;;;7.13;4.45;;;18.70;99.90;;;;;;4992997;28;20115;-65
2023/09/07 02:53:06;;;;;;;6.68;4.63;;;18.60;99.90;;;;;;4975703;28;20422;-65
2023/09/07 02:55:32;;;;;;;7.72;4.97;;;18.60;99.90;;;;;;4992110;28;20550;-65
2023/09/07 02:57:57;;;;;;;8.45;4.70;;;18.60;99.90;;;;;;4975652;28;20072;-65
2023/09/07 03:00:23;;;;;;;11.07;5.10;;;18.60;99.90;;;;;;4973874;28;20448;-65
2023/09/07 03:02:50;;;;;;;5.95;4.32;;;18.60;99.90;;;;;;4992850;28;20045;-65
2023/09/07 03:05:16;;;;;;;6.63;4.50;;;18.60;99.90;;;;;;4992656;28;20034;-65
2023/09/07 03:07:42;;;;;;;7.07;4.70;;;18.50;99.90;;;;;;4992545;28;20042;-65
2023/09/07 03:10:08;;;;;;;6.63;4.50;;;18.50;99.90;;;;;;4975326;28;20448;-64
2023/09/07 03:12:33;;;;;;;;;;;18.50;99.90;;;;;;4975256;28;20056;-65
2023/09/07 03:15:03;;;;;;;6.00;3.90;;;18.50;99.90;;;;;;4991992;28;19924;-65
2023/09/07 03:17:29;;;;;;;9.68;5.40;;;18.40;99.90;;;;;;4971668;28;20038;-64
2023/09/07 03:19:54;;;;;;;9.15;4.22;;;18.40;99.90;;;;;;4993060;28;20069;-65
2023/09/07 03:22:20;;;;;;;7.82;4.65;;;18.40;99.90;;;;;;4992114;28;20045;-65
2023/09/07 03:24:45;;;;;;;7.47;4.97;;;18.40;99.90;;;;;;4991807;28;20388;-65
2023/09/07 03:27:11;;;;;;;7.40;4.50;;;18.30;99.90;;;;;;4992603;28;20066;-65
2023/09/07 03:29:37;;;;;;;7.20;4.47;;;18.30;99.90;;;;;;4992143;28;20067;-64
2023/09/07 03:32:02;;;;;;;8.23;4.70;;;18.30;99.90;;;;;;4974641;28;20385;-65
2023/09/07 03:34:28;;;;;;;8.02;4.32;;;18.30;99.90;;;;;;4991690;28;20034;-65
2023/09/07 03:36:53;;;;;;;6.38;4.20;;;18.20;99.90;;;;;;4986082;28;20038;-65
2023/09/07 03:39:22;;;;;;;8.77;4.63;;;18.20;99.90;;;;;;4992160;28;20042;-65
2023/09/07 03:41:47;;;;;;;8.98;4.80;;;18.20;99.90;;;;;;4987169;28;20042;-65
2023/09/07 03:44:13;;;;;;;8.82;4.78;;;18.20;99.90;;;;;;4992358;28;20125;-65
2023/09/07 03:46:38;;;;;;;6.60;4.53;;;18.20;99.90;;;;;;4973180;28;20097;-65
2023/09/07 03:49:04;;;;;;;7.95;4.90;;;18.10;99.90;;;;;;4975147;28;20045;-64
2023/09/07 03:51:31;;;;;;;7.30;4.70;;;18.10;99.90;;;;;;4991700;28;20125;-65
2023/09/07 03:53:57;;;;;;;7.30;4.93;;;18.10;99.90;;;;;;4991454;28;20121;-65
2023/09/07 03:56:23;;;;;;;6.93;4.55;;;18.10;99.90;;;;;;4991778;28;20074;-64
2023/09/07 03:58:49;;;;;;;9.25;5.30;;;18.00;99.90;;;;;;4990231;28;20045;-65
2023/09/07 04:01:14;;;;;;;7.22;4.70;;;18.00;99.90;;;;;;4988801;28;20035;-65
2023/09/07 04:03:40;;;;;;;7.55;4.60;;;18.00;99.90;;;;;;4976657;28;20035;-65
2023/09/07 04:06:06;;;;;;;6.40;4.55;;;17.90;99.90;;;;;;4975191;28;20405;-64
2023/09/07 04:08:32;;;;;;;7.25;5.38;;;17.90;99.90;;;;;;4991609;28;20612;-65
2023/09/07 04:11:01;;;;;;;9.20;5.30;;;17.90;99.90;;;;;;4991517;28;20065;-65
2023/09/07 04:13:26;;;;;;;8.43;5.05;;;17.90;99.90;;;;;;4974014;28;20493;-65
2023/09/07 04:15:52;;;;;;;11.02;5.30;;;17.90;99.90;;;;;;4990790;28;20043;-65
2023/09/07 04:18:17;;;;;;;9.25;5.53;;;17.90;99.90;;;;;;4972850;28;20404;-65
2023/09/07 04:20:43;;;;;;;12.13;6.03;;;17.90;99.90;;;;;;4990695;28;20093;-65
2023/09/07 04:23:09;;;;;;;8.15;5.40;;;17.90;99.90;;;;;;4991582;28;20041;-65
2023/09/07 04:25:36;;;;;;;8.07;5.25;;;17.90;99.90;;;;;;4988492;28;20038;-65
2023/09/07 04:28:02;;;;;;;9.95;5.30;;;17.90;99.90;;;;;;4991149;28;20043;-64
2023/09/07 04:30:27;;;;;;;9.68;5.43;;;17.90;99.90;;;;;;4973284;28;20052;-65
2023/09/07 04:32:53;;;;;;;8.88;5.70;;;17.80;99.90;;;;;;4990602;28;20042;-65
2023/09/07 04:35:18;;;;;;;10.38;5.93;;;17.90;99.90;;;;;;4988077;28;20046;-65
2023/09/07 04:37:45;;;;;;;12.18;6.40;;;17.80;99.90;;;;;;4973363;28;20488;-65
2023/09/07 04:40:11;;;;;;;8.20;5.68;;;17.80;99.90;;;;;;4973932;28;20073;-65
2023/09/07 04:42:38;;;;;;;7.93;5.43;;;17.80;99.90;;;;;;4991082;28;20046;-65
2023/09/07 04:45:05;;;;;;;10.07;5.53;;;17.80;99.90;;;;;;4990203;28;20491;-64
2023/09/07 04:47:30;;;;;;;7.88;5.38;;;17.80;99.90;;;;;;4992283;28;20121;-65
2023/09/07 04:49:56;;;;;;;8.90;5.57;;;17.80;99.90;;;;;;4990491;28;20109;-65
2023/09/07 04:52:21;;;;;;;8.15;5.57;;;17.80;99.90;;;;;;4971713;28;20451;-65
2023/09/07 04:54:47;;;;;;;8.35;5.38;;;17.80;99.90;;;;;;4989473;28;20027;-65
2023/09/07 04:57:16;;;;;;;7.90;5.63;;;17.80;99.90;;;;;;4991958;28;20523;-65
2023/09/07 04:59:41;;;;;;;7.65;5.78;;;17.80;99.90;;;;;;4979480;28;20444;-65
2023/09/07 05:02:07;;;;;;;7.65;6.03;;;17.80;99.90;;;;;;4999467;28;21606;-64
2023/09/07 05:04:32;;;;;;;7.65;6.07;;;17.80;99.90;;;;;;4982789;28;20049;-65
2023/09/07 05:06:58;;;;;;;10.07;6.15;;;17.70;99.90;;;;;;5003475;28;20132;-65
2023/09/07 05:09:25;;;;;;;7.55;5.50;;;17.70;99.90;;;;;;4957643;28;20054;-65
2023/09/07 05:11:50;;;;;;;8.68;6.28;;;17.70;99.90;;;;;;4980925;28;20153;-64
2023/09/07 05:14:16;;;;;;;8.85;5.88;;;17.60;99.90;;;;;;4996871;28;20114;-65
2023/09/07 05:16:45;;;;;;;9.18;5.80;;;17.70;99.90;;;;;;4969484;28;20174;-65
2023/09/07 05:19:10;;;;;;;8.40;6.25;;;17.70;99.90;;;;;;4996599;28;20068;-65
2023/09/07 05:21:36;;;;;;;11.00;5.90;;;17.70;99.90;;;;;;4995286;28;20046;-65
2023/09/07 05:24:01;;;;;;;8.27;5.82;;;17.70;99.90;;;;;;4999140;28;20042;-65
2023/09/07 05:26:28;;;;;;;9.38;6.00;;;17.70;99.90;;;;;;4997211;28;20037;-65
2023/09/07 05:28:53;;;;;;;9.98;6.32;;;17.70;99.90;;;;;;4980943;28;20072;-65
2023/09/07 05:31:19;;;;;;;9.02;5.95;;;17.70;99.90;;;;;;4977169;28;20117;-65
2023/09/07 05:33:44;;;;;;;7.97;5.45;;;17.70;99.90;;;;;;5001498;28;20407;-65
2023/09/07 05:36:10;;;;;;;9.45;6.28;;;17.70;99.90;;;;;;4986265;28;20042;-65
2023/09/07 05:38:36;;;;;;;9.05;6.07;;;17.70;99.90;;;;;;4990133;28;20050;-64
2023/09/07 05:41:02;;;;;;;12.68;6.50;;;17.70;99.90;;;;;;4989825;28;20050;-65
2023/09/07 05:43:27;;;;;;;11.05;6.45;;;17.70;99.90;;;;;;4988192;28;20035;-64
2023/09/07 05:45:53;;;;;;;8.82;6.28;;;17.70;99.90;;;;;;4971899;28;20628;-65
2023/09/07 05:48:18;;;;;;;10.43;6.47;;;17.70;99.90;;;;;;4989877;28;20034;-65
2023/09/07 05:50:45;;;;;;;12.75;6.82;;;17.70;99.90;;;;;;4990186;28;20030;-65
2023/09/07 05:53:10;;;;;;;8.38;6.68;;;17.80;99.90;;;;;;4989995;28;20069;-65
2023/09/07 05:55:36;;;;;;;10.38;6.55;;;17.70;99.90;;;;;;4990992;28;20050;-65
2023/09/07 05:58:05;;;;;;;8.18;6.30;;;17.70;99.90;;;;;;4971914;28;20066;-65
2023/09/07 06:00:31;;;;;;;8.15;6.70;;;17.80;99.90;;;;;;4989907;28;20117;-65
2023/09/07 06:02:57;;;;;;;10.60;6.65;;;17.80;99.90;;;;;;4972765;28;20122;-65
2023/09/07 06:05:23;;;;;;;11.23;6.85;;;17.80;99.90;;;;;;4971558;28;20045;-64
2023/09/07 06:07:48;;;;;;;10.50;6.72;;;17.70;99.90;;;;;;4980548;28;20564;-64
2023/09/07 06:10:14;;;;;;;9.80;6.40;;;17.80;99.90;;;;;;4976821;28;20547;-64
2023/09/07 06:12:40;;;;;;;10.65;6.60;;;17.80;99.90;;;;;;4992791;28;20504;-64
2023/09/07 06:15:07;;;;;;;10.75;7.35;;;17.80;99.90;;;;;;4990596;28;20104;-64
2023/09/07 06:17:33;;;;;;;11.38;6.25;;;17.80;99.90;;;;;;4993053;28;20444;-65
2023/09/07 06:19:58;;;;;;;8.38;6.45;;;17.80;99.90;;;;;;4991843;28;20082;-64
2023/09/07 06:22:24;;;;;;;11.32;6.15;;;17.80;99.90;;;;;;4991867;28;20409;-65
2023/09/07 06:24:49;;;;;;;9.05;6.00;;;17.80;99.90;;;;;;4986911;28;20073;-65
2023/09/07 06:27:15;;;;;;;10.77;6.40;;;17.80;99.90;;;;;;4993456;28;20165;-65
2023/09/07 06:29:41;;;;;;;10.50;6.57;;;17.80;99.90;;;;;;4994216;28;20538;-64
2023/09/07 06:32:06;;;;;;;12.27;7.78;;;17.90;99.90;;;;;;4989234;28;20520;-65
2023/09/07 06:34:32;;;;;;;11.65;6.93;;;17.90;99.90;;;;;;4990222;28;20504;-65
2023/09/07 06:36:57;;;;;;;9.00;6.80;;;17.90;99.90;;;;;;4990578;28;20042;-65
2023/09/07 06:39:23;;;;;;;11.98;7.35;;;17.90;99.90;;;;;;4992365;28;20042;-65
2023/09/07 06:41:49;;;;;;;9.32;6.75;;;17.90;99.90;;;;;;4994222;28;20093;-65
2023/09/07 06:44:14;;;;;;;11.73;7.00;;;17.90;99.90;;;;;;4992921;28;20034;-65
2023/09/07 06:46:40;;;;;;;8.57;6.55;;;18.00;99.90;;;;;;4995366;28;20038;-65
2023/09/07 06:49:06;;;;;;;12.45;6.65;;;18.00;99.90;;;;;;4992837;28;20042;-65
2023/09/07 06:51:32;;;;;;;9.80;7.18;;;18.00;99.90;;;;;;4991647;28;20054;-65
2023/09/07 06:53:58;;;;;;;12.65;6.88;;;18.00;99.90;;;;;;4976094;28;20047;-65
2023/09/07 06:56:24;;;;;;;12.65;7.63;;;18.10;99.90;;;;;;4991085;28;20040;-65
2023/09/07 06:58:49;;;;;;;13.98;7.20;;;18.10;99.90;;;;;;4989571;28;20039;-65
2023/09/07 07:01:15;;;;;;;12.98;7.65;;;18.10;99.90;;;;;;4987832;28;20085;-65
2023/09/07 07:03:41;;;;;;;10.30;7.18;;;18.10;99.90;;;;;;4990919;28;20540;-65
2023/09/07 07:06:07;;;;;;;10.85;7.45;;;18.20;99.90;;;;;;4978254;28;20122;-65
2023/09/07 07:08:32;;;;;;;10.82;7.35;;;18.20;99.90;;;;;;4992363;28;20053;-65
2023/09/07 07:10:58;;;;;;;13.40;7.90;;;18.20;99.90;;;;;;4989984;28;20027;-65
2023/09/07 07:13:24;;;;;;;12.63;8.02;;;18.30;99.90;;;;;;4992163;28;20042;-65
2023/09/07 07:15:49;;;;;;;9.68;7.35;;;18.30;99.90;;;;;;4991405;28;20053;-65
2023/09/07 07:18:15;;;;;;;10.15;7.70;;;18.30;99.90;;;;;;4974070;28;20077;-65
2023/09/07 07:20:43;;;;;;;8.50;6.97;;;18.40;99.90;;;;;;4987643;28;20050;-65
2023/09/07 07:23:09;;;;;;;10.85;7.68;;;18.40;99.90;;;;;;4991136;28;20046;-65
2023/09/07 07:25:35;;;;;;;11.93;7.20;;;18.40;99.90;;;;;;4989687;28;20448;-65
2023/09/07 07:28:05;;;;;;;14.40;7.60;;;18.40;99.90;;;;;;4990017;28;20049;-65
2023/09/07 07:30:34;;;;;;;9.43;7.30;;;18.50;99.90;;;;;;4990118;28;20404;-65
2023/09/07 07:33:01;;;;;;;10.68;8.60;;;18.50;99.90;;;;;;4992042;28;20042;-65
2023/09/07 07:35:26;;;;;;;14.60;7.10;;;18.50;99.90;;;;;;4991684;28;20038;-65
2023/09/07 07:37:52;;;;;;;14.25;7.88;;;18.60;99.90;;;;;;4989540;28;20478;-65
2023/09/07 07:40:18;;;;;;;9.10;7.60;;;18.60;99.90;;;;;;4990444;28;20046;-65
2023/09/07 07:42:48;;;;;;;9.73;7.60;;;18.60;99.90;;;;;;4990104;28;20031;-65
2023/09/07 07:45:14;;;;;;;9.32;7.28;;;18.70;99.90;;;;;;4987693;28;20493;-65
2023/09/07 07:47:41;;;;;;;10.20;7.88;;;18.80;99.90;;;;;;4987152;28;20038;-65
2023/09/07 07:50:07;;;;;;;10.98;7.75;;;18.80;99.90;;;;;;4991081;28;20046;-65
2023/09/07 07:52:32;;;;;;;11.55;7.32;;;18.90;99.90;;;;;;4989719;28;20041;-65
2023/09/07 07:54:58;;;;;;;9.82;7.40;;;18.90;99.90;;;;;;4988003;28;20038;-65
2023/09/07 07:57:23;;;;;;;11.63;7.10;;;19.00;99.90;;;;;;4987641;28;20041;-65
2023/09/07 07:59:50;;;;;;;14.30;7.90;;;19.00;99.90;;;;;;4970993;28;20386;-65
2023/09/07 08:02:16;;;;;;;10.43;7.65;;;19.10;99.90;;;;;;4995795;28;20034;-65
2023/09/07 08:04:42;;;;;;;10.00;7.15;;;19.10;99.90;;;;;;4992172;28;20081;-65
2023/09/07 08:07:08;;;;;;;9.02;7.13;;;19.20;99.90;;;;;;4971724;28;20571;-65
2023/09/07 08:09:34;;;;;;;9.13;7.03;;;19.20;99.90;;;;;;4987282;28;20046;-65
2023/09/07 08:12:02;;;;;;;10.00;6.75;;;19.30;99.90;;;;;;4988258;28;20436;-65
2023/09/07 08:14:29;;;;;;;9.93;7.15;;;19.40;99.90;;;;;;4988545;28;20034;-65
2023/09/07 08:16:55;;;;;;;10.30;7.15;;;19.40;99.90;;;;;;4972872;28;20069;-65
2023/09/07 08:19:20;;;;;;;10.63;7.00;;;19.40;99.90;;;;;;4990065;28;20120;-65
2023/09/07 08:21:47;;;;;;;9.25;6.88;;;19.50;99.90;;;;;;4973924;28;20555;-65
2023/09/07 08:24:12;;;;;;;9.88;6.80;;;19.60;99.90;;;;;;4990732;28;20058;-65
2023/09/07 08:26:38;;;;;;;11.02;7.00;;;19.60;99.90;;;;;;4964150;28;20038;-64
2023/09/07 08:29:05;;;;;;;14.63;8.02;;;19.70;99.90;;;;;;4973812;28;20049;-65
2023/09/07 08:31:35;;;;;;;13.65;7.63;;;19.70;99.90;;;;;;4989663;28;20030;-65
2023/09/07 08:34:03;;;;;;;9.35;6.88;;;19.80;99.90;;;;;;4990822;28;20127;-65
2023/09/07 08:36:32;;;;;;;9.27;6.65;;;19.80;99.90;;;;;;4973193;28;20061;-65
2023/09/07 08:39:00;;;;;;;12.15;6.35;;;20.00;99.90;;;;;;4991111;28;20045;-65
2023/09/07 08:41:27;;;;;;;12.73;6.72;;;20.00;99.90;;;;;;4963112;28;20047;-65
2023/09/07 08:43:55;;;;;;;9.18;7.03;;;20.10;99.90;;;;;;4990306;28;20046;-65
2023/09/07 08:46:22;;;;;;;8.60;6.90;;;20.20;99.90;;;;;;4990695;28;20104;-65
2023/09/07 08:48:49;;;;;;;10.52;6.25;;;20.30;99.90;;;;;;4990944;28;20489;-65
2023/09/07 08:51:17;;;;;;;10.25;7.07;;;20.40;99.90;;;;;;4990642;28;20093;-65
2023/09/07 08:53:45;;;;;;;10.75;6.80;;;20.50;99.90;;;;;;4990752;28;20038;-65
2023/09/07 08:56:16;;;;;;;9.90;6.63;;;20.50;99.90;;;;;;4990999;28;20073;-65
2023/09/07 08:58:41;;;;;;;11.30;6.70;;;20.60;99.90;;;;;;4990751;28;20077;-65
2023/09/07 09:01:08;;;;;;;;;;;20.80;99.90;;;;;;4988118;28;20034;-65
2023/09/07 09:03:36;;;;;;;;;;;20.90;99.90;;;;;;4972186;28;19921;-65
2023/09/07 09:06:06;;;;;;;;;;;21.00;99.90;;;;;;4990485;28;19924;-65
2023/09/07 09:08:45;;;;;;;10.73;6.35;;;21.30;99.90;;;;;;4990879;28;19922;-65
2023/09/07 09:11:11;;;;;;;;;;;21.50;99.90;;;;;;4970411;28;20044;-65
2023/09/07 09:13:37;;;;;;;;;;;21.80;99.90;;;;;;4990964;28;19917;-65
2023/09/07 09:16:02;;;;;;;;;;;22.10;99.90;;;;;;4990917;28;20125;-65
2023/09/07 09:18:28;;;;;;;;;;;22.30;99.90;;;;;;4974712;28;19918;-65
2023/09/07 09:20:54;;;;;;;;;;;22.70;99.90;;;;;;4988914;28;19922;-65
2023/09/07 09:23:20;;;;;;;;;;;22.90;99.90;;;;;;4974012;28;19918;-66
2023/09/07 09:25:47;;;;;;;;;;;23.10;99.90;;;;;;4988487;28;20394;-66
2023/09/07 09:28:13;;;;;;;;;;;23.30;99.90;;;;;;4973340;28;20141;-66
2023/09/07 09:30:38;;;;;;;;;;;23.60;99.90;;;;;;4990686;28;19952;-66
2023/09/07 09:33:05;;;;;;;;;;;23.80;99.90;;;;;;4991255;28;20295;-66
2023/09/07 09:35:31;;;;;;;;;;;24.00;99.90;;;;;;4991551;28;19924;-66
2023/09/07 09:38:00;;;;;;;;;;;24.20;99.90;;;;;;4989165;28;19918;-66
2023/09/07 09:40:25;;;;;;;;;;;24.40;99.90;;;;;;4973424;28;20536;-66
2023/09/07 09:42:51;;;;;;;;;;;24.70;99.90;;;;;;4990371;28;19917;-66
2023/09/07 09:45:18;;;;;;;8.75;5.60;;;24.90;99.90;;;;;;4985423;28;19918;-66
2023/09/07 09:47:44;;;;;;;7.82;5.38;;;25.20;99.90;;;;;;4988958;28;20535;-66
2023/09/07 09:50:11;;;;;;;11.57;5.82;;;25.40;99.90;;;;;;4977379;28;20043;-66
2023/09/07 09:52:37;;;;;;;7.82;4.70;;;25.50;99.90;;;;;;4976941;28;20548;-66
2023/09/07 09:55:08;;;;;;;7.43;5.15;;;25.70;99.90;;;;;;4977433;28;20038;-66
2023/09/07 09:57:36;;;;;;;9.20;4.93;;;26.00;99.90;;;;;;4961513;28;20456;-66
2023/09/07 10:00:19;;;;;;;6.15;4.68;;;26.10;99.90;;;;;;4994024;28;20121;-66
2023/09/07 10:02:49;;;;;;;9.25;5.25;;;26.30;99.90;;;;;;4983551;28;20038;-66
2023/09/07 10:05:16;;;;;;;12.60;5.17;;;26.40;99.90;;;;;;4984686;28;20407;-66
2023/09/07 10:07:47;;;;;;;6.30;4.55;;;26.80;99.90;;;;;;4993664;28;20080;-66
2023/09/07 10:10:14;;;;;;;6.10;4.97;;;26.90;99.90;;;;;;4960074;28;20065;-66
2023/09/07 10:12:41;;;;;;;7.53;4.68;;;27.00;99.90;;;;;;4993227;28;20081;-66
2023/09/07 10:15:20;;;;;;;6.25;4.60;;;27.10;99.90;;;;;;4976140;28;20054;-66
2023/09/07 10:17:49;;;;;;;5.90;4.85;;;27.30;99.90;;;;;;4976076;28;20046;-66
2023/09/07 10:20:16;;;;;;;6.78;4.68;;;27.50;99.90;;;;;;4979366;28;20493;-66
2023/09/07 10:22:42;;;;;;;5.45;4.50;;;27.60;99.90;;;;;;4994070;28;20038;-66
2023/09/07 10:25:19;;;;;;;8.93;4.72;;;27.70;99.90;;;;;;4975641;28;20404;-66
2023/09/07 10:27:45;;;;;;;6.40;4.85;;;27.80;99.30;;;;;;4976055;28;20038;-66
2023/09/07 10:30:12;;;;;;;8.73;4.93;;;27.80;99.70;;;;;;4985432;28;20061;-66
2023/09/07 10:32:40;;;;;;;5.65;4.32;;;27.90;99.60;;;;;;4993260;28;20118;-66
2023/09/07 10:35:16;;;;;;;8.23;4.55;;;28.00;99.60;;;;;;4993091;28;20065;-66
2023/09/07 10:37:46;;;;;;;7.13;4.82;;;28.10;99.30;;;;;;4994603;28;20038;-66
2023/09/07 10:40:11;;;;;;;7.60;4.72;;;28.10;98.40;;;;;;4997192;28;20492;-66
2023/09/07 10:42:38;;;;;;;5.82;4.53;;;28.20;98.50;;;;;;4993273;28;20056;-66
2023/09/07 10:45:16;;;;;;;6.20;4.72;;;28.30;98.30;;;;;;4970605;28;20042;-66
2023/09/07 10:47:48;;;;;;;6.32;4.50;;;28.50;98.00;;;;;;4993296;28;20046;-67
2023/09/07 10:50:14;;;;;;;6.18;3.92;;;28.60;98.00;;;;;;4989523;28;20444;-67
2023/09/07 10:52:41;;;;;;;;;;;28.80;97.90;;;;;;4976232;28;20038;-67
2023/09/07 10:55:07;;;;;;;5.47;4.22;;;28.90;96.80;;;;;;4974941;28;19961;-67
2023/09/07 10:57:41;;;;;;;9.63;4.63;;;28.90;98.10;;;;;;4993255;28;20054;-66
2023/09/07 11:00:10;;;;;;;6.35;4.43;;;29.10;97.60;;;;;;4992974;28;20034;-66
2023/09/07 11:02:37;;;;;;;6.13;4.22;;;29.20;97.40;;;;;;4992789;28;20431;-66
2023/09/07 11:05:03;;;;;;;8.23;4.47;;;29.30;97.20;;;;;;4992548;28;20045;-67
2023/09/07 11:07:29;;;;;;;5.70;4.13;;;29.40;96.90;;;;;;4975372;28;20034;-67
2023/09/07 11:09:54;;;;;;;8.43;4.70;;;29.50;96.70;;;;;;4970474;28;20053;-66
2023/09/07 11:12:23;;;;;;;5.20;4.35;;;29.60;96.30;;;;;;4987094;28;20401;-66
2023/09/07 11:14:50;;;;;;;4.65;3.92;;;29.70;95.60;;;;;;4974949;28;20042;-67
2023/09/07 11:17:16;;;;;;;9.48;4.30;;;29.80;95.20;;;;;;4991992;28;20054;-67
2023/09/07 11:19:42;;;;;;;5.53;3.83;;;29.80;94.70;;;;;;4989444;28;20030;-67
2023/09/07 11:22:11;;;;;;;5.97;4.00;;;29.90;94.60;;;;;;4992217;28;20045;-67
2023/09/07 11:24:37;;;;;;;6.30;4.57;;;29.90;94.30;;;;;;4991618;28;20041;-67
2023/09/07 11:27:03;;;;;;;6.03;3.85;;;30.00;94.30;;;;;;4992196;28;20042;-67
2023/09/07 11:29:32;;;;;;;7.63;4.35;;;30.10;94.00;;;;;;4974028;28;20516;-67
2023/09/07 11:32:08;;;;;;;8.80;4.22;;;30.20;93.60;;;;;;4991812;28;20038;-67
2023/09/07 11:34:34;;;;;;;10.45;4.10;;;30.30;93.20;;;;;;4991532;28;20042;-67
2023/09/07 11:37:02;;;;;;;12.88;4.97;;;30.30;93.30;;;;;;4974778;28;20374;-67
2023/09/07 11:39:28;;;;;;;7.60;4.15;;;30.30;93.00;;;;;;4989194;28;20420;-67
2023/09/07 11:41:54;;;;;;;6.65;4.50;;;30.30;92.80;;;;;;4992240;28;20042;-67
2023/09/07 11:44:20;;;;;;;6.50;4.32;;;30.40;92.10;;;;;;4991435;28;20042;-67
2023/09/07 11:46:46;;;;;;;6.38;4.20;;;30.50;91.90;;;;;;4992250;28;20037;-67
2023/09/07 11:49:12;;;;;;;6.40;3.92;;;30.50;91.50;;;;;;4992094;28;20396;-67
2023/09/07 11:51:37;;;;;;;6.50;4.32;;;30.50;91.20;;;;;;4990994;28;20038;-67
2023/09/07 11:54:04;;;;;;;5.90;4.10;;;30.50;90.30;;;;;;4974268;28;20064;-67
2023/09/07 11:56:30;;;;;;;7.72;4.18;;;30.60;90.20;;;;;;4974167;28;20046;-67
2023/09/07 11:58:56;;;;;;;6.43;4.05;;;30.60;89.00;;;;;;4991870;28;20034;-67
2023/09/07 12:01:21;;;;;;;5.07;4.00;;;30.60;88.10;;;;;;4991834;28;20030;-67
2023/09/07 12:03:47;;;;;;;7.43;3.90;;;30.60;87.60;;;;;;4973253;28;20051;-67
2023/09/07 12:06:13;;;;;;;6.18;4.20;;;30.60;88.00;;;;;;4974230;28;20305;-67
2023/09/07 12:08:42;;;;;;;7.70;3.95;;;30.60;88.60;;;;;;4991045;28;20555;-67
2023/09/07 12:11:08;;;;;;;5.55;4.43;;;30.60;88.90;;;;;;4987451;28;20038;-67
2023/09/07 12:13:34;;;;;;;5.90;3.65;;;30.60;89.60;;;;;;4991516;28;20045;-66
2023/09/07 12:16:02;;;;;;;6.15;3.70;;;30.70;89.80;;;;;;4991582;28;20037;-67
2023/09/07 12:18:27;;;;;;;5.90;4.10;;;30.60;89.00;;;;;;4991479;28;20038;-67
2023/09/07 12:20:53;;;;;;;6.25;4.13;;;30.70;88.20;;;;;;4996583;28;20039;-66
2023/09/07 12:23:19;;;;;;;5.30;3.63;;;30.70;86.10;;;;;;4991397;28;20041;-66
2023/09/07 12:25:50;;;;;;;7.03;3.97;;;30.70;85.60;;;;;;4973831;28;20038;-67
2023/09/07 12:28:16;;;;;;;;;;;30.70;85.70;;;;;;4973072;28;20833;-66
2023/09/07 12:30:44;;;;;;;8.93;3.97;;;30.70;84.60;;;;;;4973832;28;19918;-67
2023/09/07 12:33:09;;;;;;;7.35;3.95;;;30.70;85.80;;;;;;4991263;28;20046;-66
2023/09/07 12:35:35;;;;;;;5.88;3.70;;;30.70;85.40;;;;;;4990623;28;20042;-66
2023/09/07 12:38:01;;;;;;;6.60;3.90;;;30.80;84.70;;;;;;4989875;28;20406;-67
2023/09/07 12:40:26;;;;;;;9.02;4.70;;;31.10;80.10;;;;;;4990646;28;20404;-66
2023/09/07 12:42:52;;;;;;;6.00;3.70;;;31.10;82.70;;;;;;4973853;28;20452;-67
2023/09/07 12:45:18;;;;;;;5.30;4.18;;;31.10;82.90;;;;;;4990332;28;20065;-66
2023/09/07 12:47:43;;;;;;;7.55;4.45;;;31.10;82.50;;;;;;4991154;28;20053;-66
2023/09/07 12:50:09;;;;;;;5.72;3.78;;;31.10;82.30;;;;;;4990884;28;20076;-66